sensor_id;sensor_type;location;lat;lon;timestamp;P1;durP1;ratioP1;P2;durP2;ratioP2
23068;SDS011;11702;50.856;4.348;2022-12-07T00:01:10;18.25;;;11.30;;
23068;SDS011;11702;50.856;4.348;2022-12-07T00:03:41;18.52;;;12.82;;
23068;SDS011;11702;50.856;4.348;2022-12-07T00:06:08;19.10;;;12.52;;
23068;SDS011;11702;50.856;4.348;2022-12-07T00:08:36;18.83;;;11.43;;
23068;SDS011;11702;50.856;4.348;2022-12-07T00:11:09;21.20;;;12.18;;
23068;SDS011;11702;50.856;4.348;2022-12-07T00:13:37;19.77;;;14.38;;
23068;SDS011;11702;50.856;4.348;2022-12-07T00:16:14;20.52;;;12.93;;
23068;SDS011;11702;50.856;4.348;2022-12-07T00:18:41;22.15;;;12.25;;
23068;SDS011;11702;50.856;4.348;2022-12-07T00:21:11;18.33;;;12.73;;
23068;SDS011;11702;50.856;4.348;2022-12-07T00:23:39;24.17;;;12.60;;
23068;SDS011;11702;50.856;4.348;2022-12-07T00:26:15;20.23;;;13.23;;
23068;SDS011;11702;50.856;4.348;2022-12-07T00:28:44;21.10;;;13.48;;
23068;SDS011;11702;50.856;4.348;2022-12-07T00:31:15;19.63;;;12.85;;
23068;SDS011;11702;50.856;4.348;2022-12-07T00:33:42;23.85;;;12.80;;
23068;SDS011;11702;50.856;4.348;2022-12-07T00:36:09;19.52;;;13.18;;
23068;SDS011;11702;50.856;4.348;2022-12-07T00:38:38;20.92;;;13.25;;
23068;SDS011;11702;50.856;4.348;2022-12-07T00:41:05;24.23;;;12.95;;
23068;SDS011;11702;50.856;4.348;2022-12-07T00:43:33;21.00;;;13.55;;
23068;SDS011;11702;50.856;4.348;2022-12-07T00:45:58;21.13;;;13.27;;
23068;SDS011;11702;50.856;4.348;2022-12-07T00:48:24;21.33;;;13.15;;
23068;SDS011;11702;50.856;4.348;2022-12-07T00:50:51;22.08;;;13.93;;
23068;SDS011;11702;50.856;4.348;2022-12-07T00:53:16;25.00;;;14.60;;
23068;SDS011;11702;50.856;4.348;2022-12-07T00:55:42;25.40;;;13.82;;
23068;SDS011;11702;50.856;4.348;2022-12-07T00:58:08;20.08;;;13.65;;
23068;SDS011;11702;50.856;4.348;2022-12-07T01:00:37;22.88;;;14.15;;
23068;SDS011;11702;50.856;4.348;2022-12-07T01:03:04;22.93;;;13.77;;
23068;SDS011;11702;50.856;4.348;2022-12-07T01:05:31;25.00;;;14.35;;
23068;SDS011;11702;50.856;4.348;2022-12-07T01:07:57;23.25;;;14.63;;
23068;SDS011;11702;50.856;4.348;2022-12-07T01:10:25;26.88;;;16.13;;
23068;SDS011;11702;50.856;4.348;2022-12-07T01:12:52;20.85;;;14.57;;
23068;SDS011;11702;50.856;4.348;2022-12-07T01:15:17;21.58;;;14.77;;
23068;SDS011;11702;50.856;4.348;2022-12-07T01:17:43;23.90;;;14.30;;
23068;SDS011;11702;50.856;4.348;2022-12-07T01:20:09;22.65;;;15.20;;
23068;SDS011;11702;50.856;4.348;2022-12-07T01:22:38;20.50;;;13.85;;
23068;SDS011;11702;50.856;4.348;2022-12-07T01:25:05;24.42;;;13.95;;
23068;SDS011;11702;50.856;4.348;2022-12-07T01:27:32;20.83;;;14.30;;
23068;SDS011;11702;50.856;4.348;2022-12-07T01:29:59;20.27;;;14.35;;
23068;SDS011;11702;50.856;4.348;2022-12-07T01:32:24;27.23;;;15.27;;
23068;SDS011;11702;50.856;4.348;2022-12-07T01:34:50;20.98;;;14.60;;
23068;SDS011;11702;50.856;4.348;2022-12-07T01:37:16;27.38;;;15.90;;
23068;SDS011;11702;50.856;4.348;2022-12-07T01:39:41;26.27;;;16.35;;
23068;SDS011;11702;50.856;4.348;2022-12-07T01:42:09;23.88;;;15.10;;
23068;SDS011;11702;50.856;4.348;2022-12-07T01:47:39;24.52;;;14.63;;
23068;SDS011;11702;50.856;4.348;2022-12-07T01:50:05;23.52;;;14.65;;
23068;SDS011;11702;50.856;4.348;2022-12-07T01:52:32;24.67;;;14.05;;
23068;SDS011;11702;50.856;4.348;2022-12-07T01:55:00;24.58;;;14.80;;
23068;SDS011;11702;50.856;4.348;2022-12-07T01:57:29;22.77;;;14.43;;
23068;SDS011;11702;50.856;4.348;2022-12-07T01:59:57;20.33;;;14.05;;
23068;SDS011;11702;50.856;4.348;2022-12-07T02:02:25;25.02;;;14.13;;
23068;SDS011;11702;50.856;4.348;2022-12-07T02:04:57;23.50;;;15.23;;
23068;SDS011;11702;50.856;4.348;2022-12-07T02:07:25;24.85;;;15.05;;
23068;SDS011;11702;50.856;4.348;2022-12-07T02:09:53;23.48;;;14.52;;
23068;SDS011;11702;50.856;4.348;2022-12-07T02:12:19;20.40;;;14.13;;
23068;SDS011;11702;50.856;4.348;2022-12-07T02:14:46;19.88;;;12.93;;
23068;SDS011;11702;50.856;4.348;2022-12-07T02:22:33;20.17;;;14.15;;
23068;SDS011;11702;50.856;4.348;2022-12-07T02:28:07;22.92;;;13.75;;
23068;SDS011;11702;50.856;4.348;2022-12-07T02:30:40;24.42;;;13.82;;
23068;SDS011;11702;50.856;4.348;2022-12-07T02:33:14;22.33;;;13.73;;
23068;SDS011;11702;50.856;4.348;2022-12-07T02:38:33;19.33;;;12.93;;
23068;SDS011;11702;50.856;4.348;2022-12-07T02:41:13;21.17;;;14.35;;
23068;SDS011;11702;50.856;4.348;2022-12-07T02:43:46;24.50;;;14.85;;
23068;SDS011;11702;50.856;4.348;2022-12-07T02:46:17;21.08;;;13.80;;
23068;SDS011;11702;50.856;4.348;2022-12-07T02:48:47;22.20;;;14.25;;
23068;SDS011;11702;50.856;4.348;2022-12-07T02:51:14;21.10;;;14.38;;
23068;SDS011;11702;50.856;4.348;2022-12-07T02:53:43;20.35;;;14.32;;
23068;SDS011;11702;50.856;4.348;2022-12-07T02:58:49;19.05;;;12.32;;
23068;SDS011;11702;50.856;4.348;2022-12-07T03:09:53;20.92;;;13.10;;
23068;SDS011;11702;50.856;4.348;2022-12-07T03:12:45;20.60;;;12.38;;
23068;SDS011;11702;50.856;4.348;2022-12-07T03:18:24;23.05;;;13.00;;
23068;SDS011;11702;50.856;4.348;2022-12-07T03:20:56;22.80;;;12.77;;
23068;SDS011;11702;50.856;4.348;2022-12-07T03:23:27;20.35;;;12.57;;
23068;SDS011;11702;50.856;4.348;2022-12-07T03:25:56;18.55;;;12.75;;
23068;SDS011;11702;50.856;4.348;2022-12-07T03:28:26;24.83;;;12.60;;
23068;SDS011;11702;50.856;4.348;2022-12-07T03:30:57;19.40;;;13.00;;
23068;SDS011;11702;50.856;4.348;2022-12-07T03:33:29;23.13;;;13.15;;
23068;SDS011;11702;50.856;4.348;2022-12-07T03:36:03;24.92;;;12.85;;
23068;SDS011;11702;50.856;4.348;2022-12-07T03:38:55;22.15;;;13.55;;
23068;SDS011;11702;50.856;4.348;2022-12-07T03:41:38;21.10;;;13.77;;
23068;SDS011;11702;50.856;4.348;2022-12-07T03:44:04;26.48;;;15.10;;
23068;SDS011;11702;50.856;4.348;2022-12-07T03:49:22;22.05;;;12.43;;
23068;SDS011;11702;50.856;4.348;2022-12-07T03:52:03;20.63;;;12.77;;
23068;SDS011;11702;50.856;4.348;2022-12-07T03:57:04;21.13;;;13.02;;
23068;SDS011;11702;50.856;4.348;2022-12-07T03:59:30;24.48;;;12.55;;
23068;SDS011;11702;50.856;4.348;2022-12-07T04:01:57;19.10;;;11.52;;
23068;SDS011;11702;50.856;4.348;2022-12-07T04:04:28;20.77;;;12.73;;
23068;SDS011;11702;50.856;4.348;2022-12-07T04:06:54;20.30;;;12.18;;
23068;SDS011;11702;50.856;4.348;2022-12-07T04:09:19;22.67;;;12.10;;
23068;SDS011;11702;50.856;4.348;2022-12-07T04:11:45;18.73;;;11.88;;
23068;SDS011;11702;50.856;4.348;2022-12-07T04:14:11;21.27;;;12.93;;
23068;SDS011;11702;50.856;4.348;2022-12-07T04:16:43;23.67;;;12.93;;
23068;SDS011;11702;50.856;4.348;2022-12-07T04:19:10;20.20;;;12.25;;
23068;SDS011;11702;50.856;4.348;2022-12-07T04:21:36;20.98;;;11.63;;
23068;SDS011;11702;50.856;4.348;2022-12-07T04:24:01;20.35;;;12.73;;
23068;SDS011;11702;50.856;4.348;2022-12-07T04:26:27;22.55;;;13.13;;
23068;SDS011;11702;50.856;4.348;2022-12-07T04:28:53;22.05;;;13.40;;
23068;SDS011;11702;50.856;4.348;2022-12-07T04:31:19;18.48;;;12.52;;
23068;SDS011;11702;50.856;4.348;2022-12-07T04:33:44;21.80;;;13.85;;
23068;SDS011;11702;50.856;4.348;2022-12-07T04:36:10;24.75;;;13.70;;
23068;SDS011;11702;50.856;4.348;2022-12-07T04:38:35;22.75;;;14.45;;
23068;SDS011;11702;50.856;4.348;2022-12-07T04:41:07;23.55;;;13.93;;
23068;SDS011;11702;50.856;4.348;2022-12-07T04:43:34;23.23;;;14.82;;
23068;SDS011;11702;50.856;4.348;2022-12-07T04:46:00;24.45;;;14.23;;
23068;SDS011;11702;50.856;4.348;2022-12-07T04:48:26;20.25;;;13.73;;
23068;SDS011;11702;50.856;4.348;2022-12-07T04:50:51;27.38;;;14.00;;
23068;SDS011;11702;50.856;4.348;2022-12-07T04:53:17;30.20;;;15.40;;
23068;SDS011;11702;50.856;4.348;2022-12-07T04:55:43;21.90;;;14.80;;
23068;SDS011;11702;50.856;4.348;2022-12-07T04:58:09;23.45;;;14.30;;
23068;SDS011;11702;50.856;4.348;2022-12-07T05:00:35;23.48;;;15.45;;
23068;SDS011;11702;50.856;4.348;2022-12-07T05:03:00;24.58;;;14.20;;
23068;SDS011;11702;50.856;4.348;2022-12-07T05:05:26;21.88;;;14.05;;
23068;SDS011;11702;50.856;4.348;2022-12-07T05:07:52;19.00;;;13.30;;
23068;SDS011;11702;50.856;4.348;2022-12-07T05:10:17;26.33;;;13.43;;
23068;SDS011;11702;50.856;4.348;2022-12-07T05:12:43;24.75;;;14.75;;
23068;SDS011;11702;50.856;4.348;2022-12-07T05:15:09;23.92;;;14.38;;
23068;SDS011;11702;50.856;4.348;2022-12-07T05:17:34;24.17;;;14.93;;
23068;SDS011;11702;50.856;4.348;2022-12-07T05:20:03;25.65;;;14.30;;
23068;SDS011;11702;50.856;4.348;2022-12-07T05:22:30;24.63;;;14.07;;
23068;SDS011;11702;50.856;4.348;2022-12-07T05:24:55;22.67;;;14.15;;
23068;SDS011;11702;50.856;4.348;2022-12-07T05:27:22;23.48;;;14.40;;
23068;SDS011;11702;50.856;4.348;2022-12-07T05:29:51;22.58;;;14.63;;
23068;SDS011;11702;50.856;4.348;2022-12-07T05:32:17;22.90;;;14.48;;
23068;SDS011;11702;50.856;4.348;2022-12-07T05:34:43;23.35;;;14.13;;
23068;SDS011;11702;50.856;4.348;2022-12-07T05:37:08;24.55;;;14.55;;
23068;SDS011;11702;50.856;4.348;2022-12-07T05:39:34;22.13;;;13.90;;
23068;SDS011;11702;50.856;4.348;2022-12-07T05:42:00;21.25;;;14.27;;
23068;SDS011;11702;50.856;4.348;2022-12-07T05:44:41;20.65;;;13.18;;
23068;SDS011;11702;50.856;4.348;2022-12-07T05:47:09;18.63;;;12.20;;
23068;SDS011;11702;50.856;4.348;2022-12-07T05:49:38;21.30;;;13.75;;
23068;SDS011;11702;50.856;4.348;2022-12-07T05:52:04;28.85;;;14.90;;
23068;SDS011;11702;50.856;4.348;2022-12-07T05:54:30;21.23;;;13.55;;
23068;SDS011;11702;50.856;4.348;2022-12-07T05:56:56;22.13;;;13.55;;
23068;SDS011;11702;50.856;4.348;2022-12-07T05:59:22;20.42;;;13.38;;
23068;SDS011;11702;50.856;4.348;2022-12-07T06:01:49;22.10;;;12.63;;
23068;SDS011;11702;50.856;4.348;2022-12-07T06:04:23;19.05;;;11.95;;
23068;SDS011;11702;50.856;4.348;2022-12-07T06:06:49;21.25;;;12.48;;
23068;SDS011;11702;50.856;4.348;2022-12-07T06:09:16;21.05;;;12.77;;
23068;SDS011;11702;50.856;4.348;2022-12-07T06:11:43;23.83;;;13.55;;
23068;SDS011;11702;50.856;4.348;2022-12-07T06:14:27;19.67;;;13.05;;
23068;SDS011;11702;50.856;4.348;2022-12-07T06:16:53;22.10;;;14.55;;
23068;SDS011;11702;50.856;4.348;2022-12-07T06:19:18;21.25;;;12.57;;
23068;SDS011;11702;50.856;4.348;2022-12-07T06:21:44;15.68;;;11.52;;
23068;SDS011;11702;50.856;4.348;2022-12-07T06:24:11;19.70;;;12.40;;
23068;SDS011;11702;50.856;4.348;2022-12-07T06:26:37;20.58;;;13.05;;
23068;SDS011;11702;50.856;4.348;2022-12-07T06:29:04;27.10;;;13.45;;
23068;SDS011;11702;50.856;4.348;2022-12-07T06:31:30;22.67;;;12.93;;
23068;SDS011;11702;50.856;4.348;2022-12-07T06:33:57;22.77;;;14.40;;
23068;SDS011;11702;50.856;4.348;2022-12-07T06:36:23;19.48;;;13.05;;
23068;SDS011;11702;50.856;4.348;2022-12-07T06:38:49;18.80;;;12.05;;
23068;SDS011;11702;50.856;4.348;2022-12-07T06:41:14;20.33;;;13.00;;
23068;SDS011;11702;50.856;4.348;2022-12-07T06:43:40;19.50;;;12.05;;
23068;SDS011;11702;50.856;4.348;2022-12-07T06:46:07;21.52;;;13.52;;
23068;SDS011;11702;50.856;4.348;2022-12-07T06:48:32;25.90;;;13.32;;
23068;SDS011;11702;50.856;4.348;2022-12-07T06:50:58;16.73;;;11.32;;
23068;SDS011;11702;50.856;4.348;2022-12-07T06:53:23;20.80;;;13.50;;
23068;SDS011;11702;50.856;4.348;2022-12-07T06:55:49;23.15;;;13.68;;
23068;SDS011;11702;50.856;4.348;2022-12-07T06:58:15;21.42;;;12.38;;
23068;SDS011;11702;50.856;4.348;2022-12-07T07:00:41;19.65;;;12.50;;
23068;SDS011;11702;50.856;4.348;2022-12-07T07:03:08;16.42;;;11.38;;
23068;SDS011;11702;50.856;4.348;2022-12-07T07:05:33;18.70;;;10.90;;
23068;SDS011;11702;50.856;4.348;2022-12-07T07:07:59;21.58;;;12.25;;
23068;SDS011;11702;50.856;4.348;2022-12-07T07:10:24;26.45;;;12.00;;
23068;SDS011;11702;50.856;4.348;2022-12-07T07:12:50;17.17;;;11.48;;
23068;SDS011;11702;50.856;4.348;2022-12-07T07:15:16;18.02;;;10.82;;
23068;SDS011;11702;50.856;4.348;2022-12-07T07:17:42;24.08;;;12.10;;
23068;SDS011;11702;50.856;4.348;2022-12-07T07:20:08;19.85;;;11.80;;
23068;SDS011;11702;50.856;4.348;2022-12-07T07:22:34;19.10;;;12.15;;
23068;SDS011;11702;50.856;4.348;2022-12-07T07:25:00;25.88;;;13.98;;
23068;SDS011;11702;50.856;4.348;2022-12-07T07:27:25;18.30;;;12.75;;
23068;SDS011;11702;50.856;4.348;2022-12-07T07:29:51;20.95;;;12.43;;
23068;SDS011;11702;50.856;4.348;2022-12-07T07:32:17;24.92;;;13.27;;
23068;SDS011;11702;50.856;4.348;2022-12-07T07:34:43;23.95;;;13.25;;
23068;SDS011;11702;50.856;4.348;2022-12-07T07:37:09;26.83;;;12.45;;
23068;SDS011;11702;50.856;4.348;2022-12-07T07:39:37;19.10;;;13.05;;
23068;SDS011;11702;50.856;4.348;2022-12-07T07:42:03;24.98;;;14.63;;
23068;SDS011;11702;50.856;4.348;2022-12-07T07:44:29;23.05;;;13.95;;
23068;SDS011;11702;50.856;4.348;2022-12-07T07:46:54;21.35;;;13.20;;
23068;SDS011;11702;50.856;4.348;2022-12-07T07:49:20;22.58;;;13.10;;
23068;SDS011;11702;50.856;4.348;2022-12-07T07:51:46;22.02;;;13.00;;
23068;SDS011;11702;50.856;4.348;2022-12-07T07:54:11;20.67;;;14.93;;
23068;SDS011;11702;50.856;4.348;2022-12-07T07:56:37;20.60;;;13.52;;
23068;SDS011;11702;50.856;4.348;2022-12-07T07:59:02;19.77;;;12.40;;
23068;SDS011;11702;50.856;4.348;2022-12-07T08:01:28;22.15;;;11.73;;
23068;SDS011;11702;50.856;4.348;2022-12-07T08:03:53;21.58;;;12.45;;
23068;SDS011;11702;50.856;4.348;2022-12-07T08:06:19;32.17;;;12.50;;
23068;SDS011;11702;50.856;4.348;2022-12-07T08:08:45;20.63;;;12.05;;
23068;SDS011;11702;50.856;4.348;2022-12-07T08:11:10;19.58;;;12.40;;
23068;SDS011;11702;50.856;4.348;2022-12-07T08:13:36;17.33;;;12.43;;
23068;SDS011;11702;50.856;4.348;2022-12-07T08:16:09;22.95;;;12.75;;
23068;SDS011;11702;50.856;4.348;2022-12-07T08:18:36;26.10;;;12.93;;
23068;SDS011;11702;50.856;4.348;2022-12-07T08:21:06;22.42;;;11.95;;
23068;SDS011;11702;50.856;4.348;2022-12-07T08:23:34;24.27;;;13.95;;
23068;SDS011;11702;50.856;4.348;2022-12-07T08:26:03;22.83;;;12.77;;
23068;SDS011;11702;50.856;4.348;2022-12-07T08:28:30;26.20;;;13.48;;
23068;SDS011;11702;50.856;4.348;2022-12-07T08:30:59;24.70;;;13.05;;
23068;SDS011;11702;50.856;4.348;2022-12-07T08:33:25;22.70;;;13.65;;
23068;SDS011;11702;50.856;4.348;2022-12-07T08:35:51;21.33;;;14.45;;
23068;SDS011;11702;50.856;4.348;2022-12-07T08:38:17;30.05;;;13.98;;
23068;SDS011;11702;50.856;4.348;2022-12-07T08:40:42;29.40;;;13.52;;
23068;SDS011;11702;50.856;4.348;2022-12-07T08:43:08;26.33;;;14.43;;
23068;SDS011;11702;50.856;4.348;2022-12-07T08:45:33;27.83;;;15.10;;
23068;SDS011;11702;50.856;4.348;2022-12-07T08:48:04;21.92;;;13.65;;
23068;SDS011;11702;50.856;4.348;2022-12-07T08:50:32;20.27;;;13.48;;
23068;SDS011;11702;50.856;4.348;2022-12-07T08:52:59;21.55;;;13.63;;
23068;SDS011;11702;50.856;4.348;2022-12-07T08:55:25;24.33;;;13.75;;
23068;SDS011;11702;50.856;4.348;2022-12-07T08:57:53;24.08;;;12.02;;
23068;SDS011;11702;50.856;4.348;2022-12-07T09:00:19;22.58;;;12.98;;
23068;SDS011;11702;50.856;4.348;2022-12-07T09:02:45;20.83;;;12.45;;
23068;SDS011;11702;50.856;4.348;2022-12-07T09:05:11;18.92;;;11.57;;
23068;SDS011;11702;50.856;4.348;2022-12-07T09:07:39;20.98;;;12.00;;
23068;SDS011;11702;50.856;4.348;2022-12-07T09:10:06;19.73;;;11.27;;
23068;SDS011;11702;50.856;4.348;2022-12-07T09:12:32;18.35;;;10.55;;
23068;SDS011;11702;50.856;4.348;2022-12-07T09:14:58;17.33;;;9.93;;
23068;SDS011;11702;50.856;4.348;2022-12-07T09:17:25;19.70;;;10.85;;
23068;SDS011;11702;50.856;4.348;2022-12-07T09:19:51;20.70;;;12.57;;
23068;SDS011;11702;50.856;4.348;2022-12-07T09:22:16;24.80;;;11.02;;
23068;SDS011;11702;50.856;4.348;2022-12-07T09:24:42;17.90;;;10.68;;
23068;SDS011;11702;50.856;4.348;2022-12-07T09:27:09;23.90;;;11.82;;
23068;SDS011;11702;50.856;4.348;2022-12-07T09:29:35;23.30;;;12.35;;
23068;SDS011;11702;50.856;4.348;2022-12-07T09:32:00;18.85;;;10.65;;
23068;SDS011;11702;50.856;4.348;2022-12-07T09:34:26;15.00;;;9.73;;
23068;SDS011;11702;50.856;4.348;2022-12-07T09:36:52;12.50;;;9.20;;
23068;SDS011;11702;50.856;4.348;2022-12-07T09:39:17;14.77;;;9.50;;
23068;SDS011;11702;50.856;4.348;2022-12-07T09:41:43;13.68;;;8.77;;
23068;SDS011;11702;50.856;4.348;2022-12-07T09:44:12;13.05;;;8.10;;
23068;SDS011;11702;50.856;4.348;2022-12-07T09:46:42;16.40;;;8.65;;
23068;SDS011;11702;50.856;4.348;2022-12-07T09:49:15;18.83;;;9.43;;
23068;SDS011;11702;50.856;4.348;2022-12-07T09:51:44;15.82;;;7.97;;
23068;SDS011;11702;50.856;4.348;2022-12-07T09:54:16;16.00;;;9.20;;
23068;SDS011;11702;50.856;4.348;2022-12-07T09:56:42;17.30;;;9.05;;
23068;SDS011;11702;50.856;4.348;2022-12-07T09:59:13;15.63;;;9.20;;
23068;SDS011;11702;50.856;4.348;2022-12-07T10:01:42;15.65;;;8.52;;
23068;SDS011;11702;50.856;4.348;2022-12-07T10:04:11;18.60;;;8.38;;
23068;SDS011;11702;50.856;4.348;2022-12-07T10:06:41;17.38;;;8.45;;
23068;SDS011;11702;50.856;4.348;2022-12-07T10:09:14;15.95;;;7.88;;
23068;SDS011;11702;50.856;4.348;2022-12-07T10:15:02;12.43;;;8.75;;
23068;SDS011;11702;50.856;4.348;2022-12-07T10:17:35;12.75;;;8.18;;
23068;SDS011;11702;50.856;4.348;2022-12-07T10:20:18;13.18;;;8.30;;
23068;SDS011;11702;50.856;4.348;2022-12-07T10:22:56;18.00;;;8.73;;
23068;SDS011;11702;50.856;4.348;2022-12-07T10:25:31;13.45;;;8.02;;
23068;SDS011;11702;50.856;4.348;2022-12-07T10:33:28;14.13;;;7.75;;
23068;SDS011;11702;50.856;4.348;2022-12-07T10:35:56;12.48;;;6.93;;
23068;SDS011;11702;50.856;4.348;2022-12-07T10:38:24;13.73;;;7.05;;
23068;SDS011;11702;50.856;4.348;2022-12-07T10:41:02;12.05;;;6.95;;
23068;SDS011;11702;50.856;4.348;2022-12-07T10:43:30;11.93;;;7.15;;
23068;SDS011;11702;50.856;4.348;2022-12-07T10:46:17;11.63;;;6.55;;
23068;SDS011;11702;50.856;4.348;2022-12-07T10:55:19;12.48;;;7.20;;
23068;SDS011;11702;50.856;4.348;2022-12-07T11:01:12;10.43;;;6.43;;
23068;SDS011;11702;50.856;4.348;2022-12-07T11:07:00;16.75;;;7.60;;
23068;SDS011;11702;50.856;4.348;2022-12-07T11:14:56;16.02;;;5.72;;
23068;SDS011;11702;50.856;4.348;2022-12-07T11:17:26;11.55;;;4.82;;
23068;SDS011;11702;50.856;4.348;2022-12-07T11:20:03;9.50;;;4.40;;
23068;SDS011;11702;50.856;4.348;2022-12-07T11:25:53;11.13;;;4.70;;
23068;SDS011;11702;50.856;4.348;2022-12-07T11:28:39;9.50;;;4.72;;
23068;SDS011;11702;50.856;4.348;2022-12-07T11:31:25;10.50;;;4.65;;
23068;SDS011;11702;50.856;4.348;2022-12-07T11:34:08;8.30;;;5.22;;
23068;SDS011;11702;50.856;4.348;2022-12-07T11:36:45;14.50;;;5.72;;
23068;SDS011;11702;50.856;4.348;2022-12-07T11:42:01;10.88;;;5.10;;
23068;SDS011;11702;50.856;4.348;2022-12-07T11:45:02;15.27;;;5.30;;
23068;SDS011;11702;50.856;4.348;2022-12-07T11:52:48;9.50;;;4.70;;
23068;SDS011;11702;50.856;4.348;2022-12-07T11:58:01;12.05;;;5.20;;
23068;SDS011;11702;50.856;4.348;2022-12-07T12:00:50;9.88;;;4.25;;
23068;SDS011;11702;50.856;4.348;2022-12-07T12:03:24;8.73;;;4.05;;
23068;SDS011;11702;50.856;4.348;2022-12-07T12:05:56;8.98;;;3.92;;
23068;SDS011;11702;50.856;4.348;2022-12-07T12:08:30;11.20;;;3.90;;
23068;SDS011;11702;50.856;4.348;2022-12-07T12:13:51;9.88;;;3.88;;
23068;SDS011;11702;50.856;4.348;2022-12-07T12:22:19;5.85;;;2.97;;
23068;SDS011;11702;50.856;4.348;2022-12-07T12:24:48;7.03;;;2.63;;
23068;SDS011;11702;50.856;4.348;2022-12-07T12:27:27;5.15;;;2.90;;
23068;SDS011;11702;50.856;4.348;2022-12-07T12:30:02;9.48;;;2.70;;
23068;SDS011;11702;50.856;4.348;2022-12-07T12:32:38;10.05;;;3.22;;
23068;SDS011;11702;50.856;4.348;2022-12-07T12:35:26;7.95;;;2.95;;
23068;SDS011;11702;50.856;4.348;2022-12-07T12:37:53;7.68;;;2.65;;
23068;SDS011;11702;50.856;4.348;2022-12-07T12:45:19;8.52;;;2.72;;
23068;SDS011;11702;50.856;4.348;2022-12-07T12:53:13;8.70;;;2.80;;
23068;SDS011;11702;50.856;4.348;2022-12-07T13:00:45;4.18;;;2.40;;
23068;SDS011;11702;50.856;4.348;2022-12-07T13:03:26;5.30;;;2.25;;
23068;SDS011;11702;50.856;4.348;2022-12-07T13:08:52;9.10;;;2.88;;
23068;SDS011;11702;50.856;4.348;2022-12-07T13:17:05;11.90;;;3.30;;
23068;SDS011;11702;50.856;4.348;2022-12-07T13:25:01;6.88;;;2.42;;
23068;SDS011;11702;50.856;4.348;2022-12-07T13:27:34;7.70;;;2.80;;
23068;SDS011;11702;50.856;4.348;2022-12-07T13:30:17;9.13;;;3.05;;
23068;SDS011;11702;50.856;4.348;2022-12-07T13:32:52;8.68;;;2.97;;
23068;SDS011;11702;50.856;4.348;2022-12-07T13:35:35;8.95;;;3.25;;
23068;SDS011;11702;50.856;4.348;2022-12-07T13:38:04;5.93;;;2.38;;
23068;SDS011;11702;50.856;4.348;2022-12-07T13:46:17;5.68;;;2.95;;
23068;SDS011;11702;50.856;4.348;2022-12-07T13:48:49;6.05;;;2.80;;
23068;SDS011;11702;50.856;4.348;2022-12-07T13:51:19;8.55;;;2.55;;
23068;SDS011;11702;50.856;4.348;2022-12-07T13:53:49;9.85;;;2.53;;
23068;SDS011;11702;50.856;4.348;2022-12-07T13:56:16;13.57;;;2.90;;
23068;SDS011;11702;50.856;4.348;2022-12-07T13:58:42;25.30;;;6.03;;
23068;SDS011;11702;50.856;4.348;2022-12-07T14:01:08;8.32;;;2.97;;
23068;SDS011;11702;50.856;4.348;2022-12-07T14:03:35;5.32;;;2.10;;
23068;SDS011;11702;50.856;4.348;2022-12-07T14:06:18;7.55;;;2.50;;
23068;SDS011;11702;50.856;4.348;2022-12-07T14:08:50;8.15;;;3.08;;
23068;SDS011;11702;50.856;4.348;2022-12-07T14:11:30;4.13;;;1.80;;
23068;SDS011;11702;50.856;4.348;2022-12-07T14:13:58;6.45;;;2.33;;
23068;SDS011;11702;50.856;4.348;2022-12-07T14:16:30;7.72;;;2.33;;
23068;SDS011;11702;50.856;4.348;2022-12-07T14:19:04;4.65;;;2.30;;
23068;SDS011;11702;50.856;4.348;2022-12-07T14:21:50;4.28;;;2.47;;
23068;SDS011;11702;50.856;4.348;2022-12-07T14:24:41;6.53;;;2.70;;
23068;SDS011;11702;50.856;4.348;2022-12-07T14:27:16;5.60;;;2.88;;
23068;SDS011;11702;50.856;4.348;2022-12-07T14:29:44;6.35;;;3.10;;
23068;SDS011;11702;50.856;4.348;2022-12-07T14:34:38;8.23;;;3.60;;
23068;SDS011;11702;50.856;4.348;2022-12-07T14:37:06;5.65;;;3.30;;
23068;SDS011;11702;50.856;4.348;2022-12-07T14:39:34;6.95;;;2.72;;
23068;SDS011;11702;50.856;4.348;2022-12-07T14:41:59;4.50;;;1.90;;
23068;SDS011;11702;50.856;4.348;2022-12-07T14:44:25;7.97;;;1.92;;
23068;SDS011;11702;50.856;4.348;2022-12-07T14:46:51;9.00;;;3.00;;
23068;SDS011;11702;50.856;4.348;2022-12-07T14:49:17;6.45;;;2.53;;
23068;SDS011;11702;50.856;4.348;2022-12-07T14:51:43;8.73;;;2.50;;
23068;SDS011;11702;50.856;4.348;2022-12-07T14:54:14;9.27;;;3.35;;
23068;SDS011;11702;50.856;4.348;2022-12-07T14:56:42;6.15;;;3.40;;
23068;SDS011;11702;50.856;4.348;2022-12-07T14:59:09;9.75;;;3.45;;
23068;SDS011;11702;50.856;4.348;2022-12-07T15:01:36;4.22;;;2.70;;
23068;SDS011;11702;50.856;4.348;2022-12-07T15:04:02;8.55;;;3.20;;
23068;SDS011;11702;50.856;4.348;2022-12-07T15:06:27;8.82;;;4.30;;
23068;SDS011;11702;50.856;4.348;2022-12-07T15:08:53;7.53;;;3.08;;
23068;SDS011;11702;50.856;4.348;2022-12-07T15:11:20;7.72;;;3.20;;
23068;SDS011;11702;50.856;4.348;2022-12-07T15:13:46;6.95;;;3.60;;
23068;SDS011;11702;50.856;4.348;2022-12-07T15:16:30;5.97;;;2.80;;
23068;SDS011;11702;50.856;4.348;2022-12-07T15:18:56;8.73;;;3.00;;
23068;SDS011;11702;50.856;4.348;2022-12-07T15:21:22;5.53;;;3.42;;
23068;SDS011;11702;50.856;4.348;2022-12-07T15:23:47;6.35;;;2.88;;
23068;SDS011;11702;50.856;4.348;2022-12-07T15:26:13;7.28;;;2.88;;
23068;SDS011;11702;50.856;4.348;2022-12-07T15:28:39;10.38;;;3.90;;
23068;SDS011;11702;50.856;4.348;2022-12-07T15:31:15;6.38;;;2.70;;
23068;SDS011;11702;50.856;4.348;2022-12-07T15:33:42;8.52;;;3.25;;
23068;SDS011;11702;50.856;4.348;2022-12-07T15:36:08;7.63;;;3.10;;
23068;SDS011;11702;50.856;4.348;2022-12-07T15:38:48;11.30;;;3.08;;
23068;SDS011;11702;50.856;4.348;2022-12-07T15:41:14;4.90;;;2.97;;
23068;SDS011;11702;50.856;4.348;2022-12-07T15:43:40;6.70;;;2.80;;
23068;SDS011;11702;50.856;4.348;2022-12-07T15:46:31;6.35;;;2.95;;
23068;SDS011;11702;50.856;4.348;2022-12-07T15:48:58;10.23;;;3.63;;
23068;SDS011;11702;50.856;4.348;2022-12-07T15:51:23;7.25;;;4.30;;
23068;SDS011;11702;50.856;4.348;2022-12-07T15:53:49;8.85;;;4.25;;
23068;SDS011;11702;50.856;4.348;2022-12-07T15:56:15;14.20;;;6.70;;
23068;SDS011;11702;50.856;4.348;2022-12-07T15:58:40;10.25;;;5.60;;
23068;SDS011;11702;50.856;4.348;2022-12-07T16:01:09;8.63;;;5.60;;
23068;SDS011;11702;50.856;4.348;2022-12-07T16:03:39;7.80;;;4.28;;
23068;SDS011;11702;50.856;4.348;2022-12-07T16:06:05;10.90;;;4.43;;
23068;SDS011;11702;50.856;4.348;2022-12-07T16:08:31;12.05;;;5.13;;
23068;SDS011;11702;50.856;4.348;2022-12-07T16:11:03;12.27;;;8.38;;
23068;SDS011;11702;50.856;4.348;2022-12-07T16:13:30;14.27;;;5.55;;
23068;SDS011;11702;50.856;4.348;2022-12-07T16:15:56;11.18;;;5.53;;
23068;SDS011;11702;50.856;4.348;2022-12-07T16:18:22;11.50;;;5.00;;
23068;SDS011;11702;50.856;4.348;2022-12-07T16:20:48;8.80;;;4.90;;
23068;SDS011;11702;50.856;4.348;2022-12-07T16:23:14;13.90;;;5.00;;
23068;SDS011;11702;50.856;4.348;2022-12-07T16:25:40;7.80;;;4.43;;
23068;SDS011;11702;50.856;4.348;2022-12-07T16:28:06;10.85;;;5.00;;
23068;SDS011;11702;50.856;4.348;2022-12-07T16:30:33;9.40;;;4.90;;
23068;SDS011;11702;50.856;4.348;2022-12-07T16:32:59;8.57;;;4.53;;
23068;SDS011;11702;50.856;4.348;2022-12-07T16:35:24;10.77;;;5.30;;
23068;SDS011;11702;50.856;4.348;2022-12-07T16:37:50;10.48;;;5.10;;
23068;SDS011;11702;50.856;4.348;2022-12-07T16:40:15;12.23;;;5.88;;